createdAt,value
2018-07-26T01:32:27.737Z,1016.18
2018-07-26T01:32:28.310Z,1016.17
2018-07-26T01:32:28.909Z,1016.17
2018-07-26T01:32:29.508Z,1016.18
2018-07-26T01:32:30.110Z,1016.16
2018-07-26T01:32:30.709Z,1016.15
2018-07-26T01:32:31.311Z,1016.13
2018-07-26T01:32:31.910Z,1016.16
2018-07-26T01:33:26.414Z,1016.19
2018-07-26T01:33:26.985Z,1016.19
2018-07-26T01:33:27.586Z,1016.17
2018-07-26T01:33:28.187Z,1016.21
2018-07-26T01:33:28.794Z,1016.17
2018-07-26T01:33:29.385Z,1016.17
2018-07-26T01:33:29.986Z,1016.20
2018-07-26T01:33:30.586Z,1016.21
2018-07-26T01:34:25.090Z,1016.17
2018-07-26T01:34:25.663Z,1016.16
2018-07-26T01:34:26.262Z,1016.14
2018-07-26T01:34:26.862Z,1016.15
2018-07-26T01:34:27.463Z,1016.16
2018-07-26T01:34:28.062Z,1016.16
2018-07-26T01:34:28.661Z,1016.17
2018-07-26T01:34:29.263Z,1016.16
2018-07-26T01:35:22.750Z,1016.15
2018-07-26T01:35:23.315Z,1016.16
2018-07-26T01:35:23.915Z,1016.16
2018-07-26T01:35:24.516Z,1016.16
2018-07-26T01:35:25.117Z,1016.17
2018-07-26T01:35:25.716Z,1016.17
2018-07-26T01:35:26.314Z,1016.18
2018-07-26T01:35:26.920Z,1016.18
2018-07-26T01:36:20.395Z,1016.15
2018-07-26T01:36:20.967Z,1016.16
2018-07-26T01:36:21.568Z,1016.15
2018-07-26T01:36:22.174Z,1016.18
2018-07-26T01:36:22.768Z,1016.18
2018-07-26T01:36:23.367Z,1016.16
2018-07-26T01:36:23.966Z,1016.14
2018-07-26T01:36:24.567Z,1016.16
2018-07-26T01:37:19.072Z,1016.12
2018-07-26T01:37:19.643Z,1016.12
2018-07-26T01:37:20.244Z,1016.12
2018-07-26T01:37:20.843Z,1016.17
2018-07-26T01:37:21.444Z,1016.15
2018-07-26T01:37:22.043Z,1016.14
2018-07-26T01:37:22.641Z,1016.13
2018-07-26T01:37:23.241Z,1016.15
2018-07-26T01:38:16.724Z,1016.13
2018-07-26T01:38:17.296Z,1016.15
2018-07-26T01:38:17.896Z,1016.19
2018-07-26T01:38:18.496Z,1016.16
2018-07-26T01:38:19.097Z,1016.14
2018-07-26T01:38:19.695Z,1016.17
2018-07-26T01:38:20.295Z,1016.17
2018-07-26T01:38:20.895Z,1016.12
2018-07-26T01:39:15.399Z,1016.12
2018-07-26T01:39:15.977Z,1016.12
2018-07-26T01:39:16.572Z,1016.11
2018-07-26T01:39:17.170Z,1016.12
2018-07-26T01:39:17.771Z,1016.12
2018-07-26T01:39:18.370Z,1016.16
2018-07-26T01:39:18.971Z,1016.15
2018-07-26T01:39:19.571Z,1016.12
2018-07-26T01:40:14.076Z,1016.16
2018-07-26T01:40:14.646Z,1016.14
2018-07-26T01:40:15.247Z,1016.13
2018-07-26T01:40:15.846Z,1016.12
2018-07-26T01:40:16.448Z,1016.15
2018-07-26T01:40:17.046Z,1016.13
2018-07-26T01:40:17.647Z,1016.16
2018-07-26T01:40:18.250Z,1016.14
2018-07-26T01:41:12.752Z,1016.09
2018-07-26T01:41:13.324Z,1016.10
2018-07-26T01:41:13.924Z,1016.09
2018-07-26T01:41:14.522Z,1016.10
2018-07-26T01:41:15.124Z,1016.09
2018-07-26T01:41:15.723Z,1016.07
2018-07-26T01:41:16.322Z,1016.08
2018-07-26T01:41:16.921Z,1016.09
2018-07-26T01:42:10.405Z,1016.07
2018-07-26T01:42:10.976Z,1016.05
2018-07-26T01:42:11.576Z,1016.09
2018-07-26T01:42:12.176Z,1016.06
2018-07-26T01:42:12.776Z,1016.10
2018-07-26T01:42:13.376Z,1016.07
2018-07-26T01:42:13.975Z,1016.09
2018-07-26T01:42:14.575Z,1016.09
2018-07-26T01:43:08.057Z,1016.09
2018-07-26T01:43:08.628Z,1016.10
2018-07-26T01:43:09.228Z,1016.10
2018-07-26T01:43:09.828Z,1016.11
2018-07-26T01:43:10.428Z,1016.09
2018-07-26T01:43:11.026Z,1016.10
2018-07-26T01:43:11.628Z,1016.11
2018-07-26T01:43:12.227Z,1016.10
2018-07-26T01:44:06.731Z,1016.05
2018-07-26T01:44:07.304Z,1016.06
2018-07-26T01:44:07.903Z,1016.06
2018-07-26T01:44:08.502Z,1016.08
2018-07-26T01:44:09.104Z,1016.08
2018-07-26T01:44:09.703Z,1016.08
2018-07-26T01:44:10.305Z,1016.09
2018-07-26T01:44:10.905Z,1016.09
2018-07-26T01:45:04.384Z,1016.05
2018-07-26T01:45:04.957Z,1016.06
2018-07-26T01:45:05.559Z,1016.05
2018-07-26T01:45:06.155Z,1016.04
2018-07-26T01:45:06.755Z,1016.05
2018-07-26T01:45:07.357Z,1016.06
2018-07-26T01:45:07.953Z,1016.05
2018-07-26T01:45:08.554Z,1016.07
2018-07-26T01:46:03.059Z,1016.08
2018-07-26T01:46:03.630Z,1016.10
2018-07-26T01:46:04.232Z,1016.09
2018-07-26T01:46:04.831Z,1016.10
2018-07-26T01:46:05.433Z,1016.08
2018-07-26T01:46:06.031Z,1016.10
2018-07-26T01:46:06.632Z,1016.09
2018-07-26T01:46:07.231Z,1016.10
2018-07-26T01:47:00.803Z,1016.08
2018-07-26T01:47:01.310Z,1016.08
2018-07-26T01:47:01.907Z,1016.11
2018-07-26T01:47:02.509Z,1016.09
2018-07-26T01:47:03.109Z,1016.09
2018-07-26T01:47:03.711Z,1016.08
2018-07-26T01:47:04.308Z,1016.08
2018-07-26T01:47:04.907Z,1016.08
2018-07-26T01:47:58.465Z,1016.08
2018-07-26T01:47:59.038Z,1016.05
2018-07-26T01:47:59.637Z,1016.10
2018-07-26T01:48:00.240Z,1016.08
2018-07-26T01:48:00.839Z,1016.10
2018-07-26T01:48:01.437Z,1016.06
2018-07-26T01:48:02.038Z,1016.06
2018-07-26T01:48:02.637Z,1016.04
2018-07-26T01:48:57.141Z,1016.08
2018-07-26T01:48:57.712Z,1016.10
2018-07-26T01:48:58.313Z,1016.08
2018-07-26T01:48:58.912Z,1016.09
2018-07-26T01:48:59.512Z,1016.08
2018-07-26T01:49:00.112Z,1016.10
2018-07-26T01:49:00.716Z,1016.10
2018-07-26T01:49:01.315Z,1016.11
2018-07-26T01:49:54.793Z,1016.09
2018-07-26T01:49:55.366Z,1016.11
2018-07-26T01:49:55.965Z,1016.09
2018-07-26T01:49:56.564Z,1016.11
2018-07-26T01:49:57.166Z,1016.09
2018-07-26T01:49:57.766Z,1016.08
2018-07-26T01:49:58.364Z,1016.07
2018-07-26T01:49:58.968Z,1016.05
2018-07-26T01:50:52.443Z,1016.09
2018-07-26T01:50:53.017Z,1016.09
2018-07-26T01:50:53.615Z,1016.06
2018-07-26T01:50:54.217Z,1016.08
2018-07-26T01:50:54.816Z,1016.09
2018-07-26T01:50:55.416Z,1016.08
2018-07-26T01:50:56.017Z,1016.09
2018-07-26T01:50:56.617Z,1016.09
2018-07-26T01:51:50.098Z,1016.11
2018-07-26T01:51:50.671Z,1016.09
2018-07-26T01:51:51.269Z,1016.10
2018-07-26T01:51:51.868Z,1016.11
2018-07-26T01:51:52.468Z,1016.09
2018-07-26T01:51:53.068Z,1016.11
2018-07-26T01:51:53.669Z,1016.09
2018-07-26T01:51:54.269Z,1016.09
2018-07-26T01:52:48.772Z,1016.10
2018-07-26T01:52:49.344Z,1016.10
2018-07-26T01:52:49.946Z,1016.10
2018-07-26T01:52:50.548Z,1016.09
2018-07-26T01:52:51.144Z,1016.08
2018-07-26T01:52:51.743Z,1016.08
2018-07-26T01:52:52.343Z,1016.08
2018-07-26T01:52:52.944Z,1016.08
2018-07-26T01:53:46.424Z,1016.08
2018-07-26T01:53:46.995Z,1016.07
2018-07-26T01:53:47.596Z,1016.06
2018-07-26T01:53:48.196Z,1016.08
2018-07-26T01:53:48.796Z,1016.09
2018-07-26T01:53:49.396Z,1016.09
2018-07-26T01:53:49.996Z,1016.09
2018-07-26T01:53:50.596Z,1016.08
2018-07-26T01:54:44.074Z,1016.06
2018-07-26T01:54:44.652Z,1016.06
2018-07-26T01:54:45.248Z,1016.07
2018-07-26T01:54:45.852Z,1016.08
2018-07-26T01:54:46.448Z,1016.04
2018-07-26T01:54:47.049Z,1016.07
2018-07-26T01:54:47.649Z,1016.05
2018-07-26T01:54:48.247Z,1016.07
2018-07-26T01:55:42.752Z,1016.07
2018-07-26T01:55:43.324Z,1016.08
2018-07-26T01:55:43.923Z,1016.06
2018-07-26T01:55:44.523Z,1016.07
2018-07-26T01:55:45.124Z,1016.07
2018-07-26T01:55:45.724Z,1016.07
2018-07-26T01:55:46.323Z,1016.09
2018-07-26T01:55:46.924Z,1016.08
2018-07-26T01:56:40.406Z,1016.07
2018-07-26T01:56:40.976Z,1016.05
2018-07-26T01:56:41.576Z,1016.03
2018-07-26T01:56:42.180Z,1016.08
2018-07-26T01:56:42.775Z,1016.08
2018-07-26T01:56:43.376Z,1016.11
2018-07-26T01:56:43.976Z,1016.09
2018-07-26T01:56:44.576Z,1016.06
2018-07-26T01:57:38.059Z,1016.06
2018-07-26T01:57:38.627Z,1016.05
2018-07-26T01:57:39.229Z,1016.09
2018-07-26T01:57:39.828Z,1016.07
2018-07-26T01:57:40.426Z,1016.07
2018-07-26T01:57:41.030Z,1016.05
2018-07-26T01:57:41.627Z,1016.07
2018-07-26T01:57:42.227Z,1016.06
2018-07-26T01:58:36.731Z,1016.05
2018-07-26T01:58:37.301Z,1016.06
2018-07-26T01:58:37.901Z,1016.06
2018-07-26T01:58:38.502Z,1016.09
2018-07-26T01:58:39.101Z,1016.11
2018-07-26T01:58:39.701Z,1016.07
2018-07-26T01:58:40.300Z,1016.06
2018-07-26T01:58:40.900Z,1016.09
2018-07-26T01:59:35.406Z,1016.09
2018-07-26T01:59:35.977Z,1016.10
2018-07-26T01:59:36.578Z,1016.10
2018-07-26T01:59:37.179Z,1016.10
2018-07-26T01:59:37.777Z,1016.10
2018-07-26T01:59:38.378Z,1016.10
2018-07-26T01:59:38.978Z,1016.11
2018-07-26T01:59:39.579Z,1016.11
2018-07-26T02:00:34.082Z,1016.10
2018-07-26T02:00:34.654Z,1016.11
2018-07-26T02:00:35.254Z,1016.13
2018-07-26T02:00:35.855Z,1016.10
2018-07-26T02:00:36.455Z,1016.10
2018-07-26T02:00:37.053Z,1016.11
2018-07-26T02:00:37.653Z,1016.07
2018-07-26T02:00:38.254Z,1016.09
2018-07-26T02:01:32.776Z,1016.08
2018-07-26T02:01:33.376Z,1016.11
2018-07-26T02:01:33.976Z,1016.09
2018-07-26T02:01:34.569Z,1016.11
2018-07-26T02:01:35.149Z,1016.11
2018-07-26T02:01:35.732Z,1016.10
2018-07-26T02:01:36.351Z,1016.10
2018-07-26T02:01:36.938Z,1016.07
2018-07-26T02:02:30.412Z,1016.10
2018-07-26T02:02:30.983Z,1016.11
2018-07-26T02:02:31.582Z,1016.09
2018-07-26T02:02:32.183Z,1016.08
2018-07-26T02:02:32.782Z,1016.10
2018-07-26T02:02:33.383Z,1016.08
2018-07-26T02:02:33.981Z,1016.09
2018-07-26T02:02:34.582Z,1016.07
2018-07-26T02:03:28.062Z,1016.13
2018-07-26T02:03:28.637Z,1016.08
2018-07-26T02:03:29.235Z,1016.09
2018-07-26T02:03:29.837Z,1016.07
2018-07-26T02:03:30.434Z,1016.09
2018-07-26T02:03:31.036Z,1016.10
2018-07-26T02:03:31.635Z,1016.08
2018-07-26T02:03:32.234Z,1016.11
2018-07-26T02:04:26.738Z,1016.08
2018-07-26T02:04:27.308Z,1016.06
2018-07-26T02:04:27.907Z,1016.10
2018-07-26T02:04:28.509Z,1016.10
2018-07-26T02:04:29.110Z,1016.08
2018-07-26T02:04:29.709Z,1016.10
2018-07-26T02:04:30.314Z,1016.08
2018-07-26T02:04:30.908Z,1016.09
2018-07-26T02:05:25.415Z,1016.07
2018-07-26T02:05:25.986Z,1016.05
2018-07-26T02:05:26.585Z,1016.08
2018-07-26T02:05:27.185Z,1016.08
2018-07-26T02:05:27.785Z,1016.05
2018-07-26T02:05:28.385Z,1016.07
2018-07-26T02:05:28.984Z,1016.05
2018-07-26T02:05:29.584Z,1016.06
2018-07-26T02:06:24.090Z,1016.06
2018-07-26T02:06:24.660Z,1016.07
2018-07-26T02:06:25.261Z,1016.04
2018-07-26T02:06:25.861Z,1016.05
2018-07-26T02:06:26.460Z,1016.07
2018-07-26T02:06:27.062Z,1016.07
2018-07-26T02:06:27.662Z,1016.08
2018-07-26T02:06:28.263Z,1016.08
2018-07-26T02:07:22.765Z,1016.05
2018-07-26T02:07:23.337Z,1016.09
2018-07-26T02:07:23.937Z,1016.06
2018-07-26T02:07:24.536Z,1016.06
2018-07-26T02:07:25.136Z,1016.06
2018-07-26T02:07:25.737Z,1016.05
2018-07-26T02:07:26.336Z,1016.06
2018-07-26T02:07:26.936Z,1016.04
2018-07-26T02:08:20.417Z,1016.08
2018-07-26T02:08:20.989Z,1016.06
2018-07-26T02:08:21.590Z,1016.05
2018-07-26T02:08:22.189Z,1016.07
2018-07-26T02:08:22.791Z,1016.06
2018-07-26T02:08:23.389Z,1016.05
2018-07-26T02:08:23.989Z,1016.07
2018-07-26T02:08:24.593Z,1016.03
2018-07-26T02:09:18.172Z,1016.06
2018-07-26T02:09:18.746Z,1016.07
2018-07-26T02:09:19.349Z,1016.07
2018-07-26T02:09:19.944Z,1016.06
2018-07-26T02:09:20.543Z,1016.04
2018-07-26T02:09:21.145Z,1016.04
2018-07-26T02:09:21.744Z,1016.09
2018-07-26T02:09:22.344Z,1016.08
2018-07-26T02:10:16.847Z,1016.07
2018-07-26T02:10:17.417Z,1016.07
2018-07-26T02:10:18.018Z,1016.05
2018-07-26T02:10:18.619Z,1016.07
2018-07-26T02:10:19.217Z,1016.06
2018-07-26T02:10:19.818Z,1016.09
2018-07-26T02:10:20.417Z,1016.07
2018-07-26T02:10:21.018Z,1016.07
2018-07-26T02:11:14.498Z,1016.08
2018-07-26T02:11:15.071Z,1016.07
2018-07-26T02:11:15.673Z,1016.05
2018-07-26T02:11:16.271Z,1016.08
2018-07-26T02:11:16.871Z,1016.07
2018-07-26T02:11:17.471Z,1016.07
2018-07-26T02:11:18.073Z,1016.05
2018-07-26T02:11:18.674Z,1016.05
2018-07-26T02:12:12.151Z,1016.07
2018-07-26T02:12:12.723Z,1016.06
2018-07-26T02:12:13.323Z,1016.04
2018-07-26T02:12:13.922Z,1016.07
2018-07-26T02:12:14.522Z,1016.06
2018-07-26T02:12:15.123Z,1016.06
2018-07-26T02:12:15.724Z,1016.08
2018-07-26T02:12:16.323Z,1016.03
2018-07-26T02:13:09.904Z,1016.02
2018-07-26T02:13:10.479Z,1016.08
2018-07-26T02:13:11.078Z,1016.08
2018-07-26T02:13:11.677Z,1016.09
2018-07-26T02:13:12.276Z,1016.05
2018-07-26T02:13:12.877Z,1016.09
2018-07-26T02:13:13.477Z,1016.06
2018-07-26T02:13:14.104Z,1016.05
2018-07-26T02:14:07.659Z,1016.04
2018-07-26T02:14:08.234Z,1016.06
2018-07-26T02:14:08.831Z,1016.08
2018-07-26T02:14:09.431Z,1016.04
2018-07-26T02:14:10.032Z,1016.07
2018-07-26T02:14:10.631Z,1016.07
2018-07-26T02:14:11.231Z,1016.06
2018-07-26T02:14:11.831Z,1016.05
2018-07-26T02:15:05.310Z,1016.06
2018-07-26T02:15:05.882Z,1016.06
2018-07-26T02:15:06.484Z,1016.05
2018-07-26T02:15:07.083Z,1016.03
2018-07-26T02:15:07.683Z,1016.05
2018-07-26T02:15:08.283Z,1016.07
2018-07-26T02:15:08.885Z,1016.05
2018-07-26T02:15:09.482Z,1016.05
2018-07-26T02:16:03.987Z,1016.06
2018-07-26T02:16:04.557Z,1016.04
2018-07-26T02:16:05.157Z,1016.06
2018-07-26T02:16:05.758Z,1016.03
2018-07-26T02:16:06.357Z,1016.07
2018-07-26T02:16:06.958Z,1016.05
2018-07-26T02:16:07.559Z,1016.07
2018-07-26T02:16:08.159Z,1016.10
2018-07-26T02:17:02.661Z,1016.06
2018-07-26T02:17:03.233Z,1016.05
2018-07-26T02:17:03.831Z,1016.06
2018-07-26T02:17:04.432Z,1016.08
2018-07-26T02:17:05.033Z,1016.08
2018-07-26T02:17:05.632Z,1016.05
2018-07-26T02:17:06.235Z,1016.07
2018-07-26T02:17:06.834Z,1016.06
2018-07-26T02:18:01.337Z,1016.08
2018-07-26T02:18:01.909Z,1016.02
2018-07-26T02:18:02.510Z,1016.07
2018-07-26T02:18:03.109Z,1016.08
2018-07-26T02:18:03.713Z,1016.06
2018-07-26T02:18:04.309Z,1016.06
2018-07-26T02:18:04.908Z,1016.06
2018-07-26T02:18:05.510Z,1016.07
2018-07-26T02:19:00.017Z,1016.10
2018-07-26T02:19:00.585Z,1016.07
2018-07-26T02:19:01.187Z,1016.07
2018-07-26T02:19:01.785Z,1016.06
2018-07-26T02:19:02.387Z,1016.06
2018-07-26T02:19:02.983Z,1016.10
2018-07-26T02:19:03.585Z,1016.07
2018-07-26T02:19:04.184Z,1016.10
2018-07-26T02:19:58.689Z,1016.07
2018-07-26T02:19:59.260Z,1016.09
2018-07-26T02:19:59.862Z,1016.11
2018-07-26T02:20:00.460Z,1016.11
2018-07-26T02:20:01.061Z,1016.05
2018-07-26T02:20:01.662Z,1016.06
2018-07-26T02:20:02.261Z,1016.07
2018-07-26T02:20:02.862Z,1016.10
2018-07-26T02:20:57.364Z,1016.10
2018-07-26T02:20:57.935Z,1016.10
2018-07-26T02:20:58.534Z,1016.09
2018-07-26T02:20:59.135Z,1016.13
2018-07-26T02:20:59.734Z,1016.13
2018-07-26T02:21:00.337Z,1016.10
2018-07-26T02:21:00.935Z,1016.10
2018-07-26T02:21:01.536Z,1016.10
2018-07-26T02:21:56.040Z,1016.13
2018-07-26T02:21:56.616Z,1016.12
2018-07-26T02:21:57.212Z,1016.11
2018-07-26T02:21:57.811Z,1016.12
2018-07-26T02:21:58.411Z,1016.14
2018-07-26T02:21:59.012Z,1016.11
2018-07-26T02:21:59.612Z,1016.11
2018-07-26T02:22:00.212Z,1016.11
2018-07-26T02:22:54.715Z,1016.11
2018-07-26T02:22:55.287Z,1016.12
2018-07-26T02:22:55.892Z,1016.14
2018-07-26T02:22:56.488Z,1016.13
2018-07-26T02:22:57.088Z,1016.11
2018-07-26T02:22:57.687Z,1016.11
2018-07-26T02:22:58.287Z,1016.11
2018-07-26T02:22:58.888Z,1016.12
2018-07-26T02:23:52.368Z,1016.12
2018-07-26T02:23:52.945Z,1016.11
2018-07-26T02:23:53.540Z,1016.07
2018-07-26T02:23:54.140Z,1016.11
2018-07-26T02:23:54.739Z,1016.10
2018-07-26T02:23:55.339Z,1016.12
2018-07-26T02:23:55.940Z,1016.11
2018-07-26T02:23:56.541Z,1016.14
2018-07-26T02:24:51.044Z,1016.13
2018-07-26T02:24:51.615Z,1016.12
2018-07-26T02:24:52.218Z,1016.13
2018-07-26T02:24:52.813Z,1016.13
2018-07-26T02:24:53.414Z,1016.12
2018-07-26T02:24:54.015Z,1016.14
2018-07-26T02:24:54.615Z,1016.11
2018-07-26T02:24:55.214Z,1016.15
2018-07-26T02:25:48.694Z,1016.13
2018-07-26T02:25:49.268Z,1016.11
2018-07-26T02:25:49.867Z,1016.10
2018-07-26T02:25:50.469Z,1016.11
2018-07-26T02:25:51.068Z,1016.12
2018-07-26T02:25:51.667Z,1016.14
2018-07-26T02:25:52.270Z,1016.12
2018-07-26T02:25:52.868Z,1016.11
2018-07-26T02:26:46.451Z,1016.12
2018-07-26T02:26:47.023Z,1016.10
2018-07-26T02:26:47.622Z,1016.12
2018-07-26T02:26:48.222Z,1016.13
2018-07-26T02:26:48.823Z,1016.11
2018-07-26T02:26:49.421Z,1016.11
2018-07-26T02:26:50.023Z,1016.11
2018-07-26T02:26:50.622Z,1016.09
2018-07-26T02:27:44.203Z,1016.12
2018-07-26T02:27:44.778Z,1016.16
2018-07-26T02:27:45.377Z,1016.14
2018-07-26T02:27:45.976Z,1016.12
2018-07-26T02:27:46.579Z,1016.12
2018-07-26T02:27:47.175Z,1016.13
2018-07-26T02:27:47.775Z,1016.11
2018-07-26T02:27:48.373Z,1016.13
2018-07-26T02:28:41.957Z,1016.09
2018-07-26T02:28:42.531Z,1016.10
2018-07-26T02:28:43.130Z,1016.11
2018-07-26T02:28:43.730Z,1016.13
2018-07-26T02:28:44.332Z,1016.10
2018-07-26T02:28:44.930Z,1016.11
2018-07-26T02:28:45.529Z,1016.11
2018-07-26T02:28:46.129Z,1016.09
2018-07-26T02:29:40.633Z,1016.12
2018-07-26T02:29:41.203Z,1016.12
2018-07-26T02:29:41.806Z,1016.09
2018-07-26T02:29:42.404Z,1016.10
2018-07-26T02:29:43.005Z,1016.10
2018-07-26T02:29:43.604Z,1016.12
2018-07-26T02:29:44.204Z,1016.11
2018-07-26T02:29:44.803Z,1016.12
2018-07-26T02:30:38.285Z,1016.11
2018-07-26T02:30:38.860Z,1016.09
2018-07-26T02:30:39.459Z,1016.12
2018-07-26T02:30:40.057Z,1016.11
2018-07-26T02:30:40.659Z,1016.07
2018-07-26T02:30:41.258Z,1016.09
2018-07-26T02:30:41.859Z,1016.10
2018-07-26T02:30:42.461Z,1016.08
2018-07-26T02:31:35.945Z,1016.10
2018-07-26T02:31:36.512Z,1016.10
2018-07-26T02:31:37.112Z,1016.12
2018-07-26T02:31:37.709Z,1016.10
2018-07-26T02:31:38.309Z,1016.10
2018-07-26T02:31:38.909Z,1016.07
2018-07-26T02:31:39.514Z,1016.06
2018-07-26T02:31:40.110Z,1016.05
2018-07-26T02:32:34.614Z,1016.06
2018-07-26T02:32:35.182Z,1016.04
2018-07-26T02:32:35.794Z,1016.07
2018-07-26T02:32:36.383Z,1016.08
2018-07-26T02:32:36.987Z,1016.09
2018-07-26T02:32:37.583Z,1016.08
2018-07-26T02:32:38.192Z,1016.07
2018-07-26T02:32:38.782Z,1016.05
2018-07-26T02:33:33.286Z,1016.08
2018-07-26T02:33:33.860Z,1016.07
2018-07-26T02:33:34.461Z,1016.05
2018-07-26T02:33:35.059Z,1016.08
2018-07-26T02:33:35.664Z,1016.08
2018-07-26T02:33:36.258Z,1016.05
2018-07-26T02:33:36.859Z,1016.06
2018-07-26T02:33:37.459Z,1016.04
2018-07-26T02:34:31.964Z,1016.06
2018-07-26T02:34:32.536Z,1016.04
2018-07-26T02:34:33.136Z,1016.01
2018-07-26T02:34:33.736Z,1016.05
2018-07-26T02:34:34.335Z,1016.03
2018-07-26T02:34:34.935Z,1016.04
2018-07-26T02:34:35.536Z,1016.05
2018-07-26T02:34:36.136Z,1016.03
2018-07-26T02:35:29.616Z,1016.06
2018-07-26T02:35:30.188Z,1016.03
2018-07-26T02:35:30.788Z,1016.07
2018-07-26T02:35:31.391Z,1016.03
2018-07-26T02:35:31.990Z,1016.02
2018-07-26T02:35:32.593Z,1016.04
2018-07-26T02:35:33.187Z,1016.04
2018-07-26T02:35:33.787Z,1016.05
2018-07-26T02:36:28.295Z,1016.05
2018-07-26T02:36:28.862Z,1016.04
2018-07-26T02:36:29.463Z,1016.05
2018-07-26T02:36:30.064Z,1016.05
2018-07-26T02:36:30.667Z,1016.05
2018-07-26T02:36:31.260Z,1016.06
2018-07-26T02:36:31.860Z,1016.04
2018-07-26T02:36:32.459Z,1016.06
2018-07-26T02:37:26.965Z,1016.07
2018-07-26T02:37:27.538Z,1016.05
2018-07-26T02:37:28.138Z,1016.05
2018-07-26T02:37:28.738Z,1016.03
2018-07-26T02:37:29.338Z,1016.09
2018-07-26T02:37:29.939Z,1016.09
2018-07-26T02:37:30.538Z,1016.06
2018-07-26T02:37:31.139Z,1016.06
2018-07-26T02:38:24.618Z,1016.06
2018-07-26T02:38:25.190Z,1016.04
2018-07-26T02:38:25.791Z,1016.04
2018-07-26T02:38:26.390Z,1016.05
2018-07-26T02:38:26.991Z,1016.06
2018-07-26T02:38:27.594Z,1016.06
2018-07-26T02:38:28.188Z,1016.01
2018-07-26T02:38:28.790Z,1016.06
2018-07-26T02:39:22.269Z,1016.06
2018-07-26T02:39:22.845Z,1016.05
2018-07-26T02:39:23.444Z,1016.04
2018-07-26T02:39:24.044Z,1016.05
2018-07-26T02:39:24.643Z,1016.06
2018-07-26T02:39:25.242Z,1016.10
2018-07-26T02:39:25.843Z,1016.06
2018-07-26T02:39:26.444Z,1016.06
2018-07-26T02:40:20.026Z,1016.02
2018-07-26T02:40:20.599Z,1016.04
2018-07-26T02:40:21.199Z,1016.04
2018-07-26T02:40:21.797Z,1016.04
2018-07-26T02:40:22.398Z,1016.03
2018-07-26T02:40:22.997Z,1016.05
2018-07-26T02:40:23.598Z,1016.08
2018-07-26T02:40:24.197Z,1016.06
2018-07-26T02:41:18.701Z,1016.01
2018-07-26T02:41:19.272Z,1016.02
2018-07-26T02:41:19.873Z,1016.08
2018-07-26T02:41:20.471Z,1016.05
2018-07-26T02:41:21.071Z,1016.04
2018-07-26T02:41:21.671Z,1016.03
2018-07-26T02:41:22.270Z,1016.07
2018-07-26T02:41:22.872Z,1016.07
2018-07-26T02:42:17.374Z,1016.06
2018-07-26T02:42:17.948Z,1016.04
2018-07-26T02:42:18.546Z,1016.06
2018-07-26T02:42:19.151Z,1016.05
2018-07-26T02:42:19.746Z,1016.08
2018-07-26T02:42:20.346Z,1016.08
2018-07-26T02:42:20.947Z,1016.06
2018-07-26T02:42:21.549Z,1016.06
2018-07-26T02:43:16.053Z,1016.06
2018-07-26T02:43:16.622Z,1016.09
2018-07-26T02:43:17.222Z,1016.04
2018-07-26T02:43:17.823Z,1016.04
2018-07-26T02:43:18.422Z,1016.06
2018-07-26T02:43:19.022Z,1016.05
2018-07-26T02:43:19.622Z,1016.05
2018-07-26T02:43:20.221Z,1016.05
2018-07-26T02:44:13.702Z,1016.07
2018-07-26T02:44:14.275Z,1016.06
2018-07-26T02:44:14.878Z,1016.03
2018-07-26T02:44:15.474Z,1016.05
2018-07-26T02:44:16.076Z,1016.11
2018-07-26T02:44:16.675Z,1016.11
2018-07-26T02:44:17.305Z,1016.09
2018-07-26T02:44:17.876Z,1016.06
2018-07-26T02:45:12.379Z,1016.06
2018-07-26T02:45:12.950Z,1016.06
2018-07-26T02:45:13.549Z,1016.06
2018-07-26T02:45:14.150Z,1016.04
2018-07-26T02:45:14.750Z,1016.07
2018-07-26T02:45:15.349Z,1016.08
2018-07-26T02:45:15.953Z,1016.06
2018-07-26T02:45:16.551Z,1016.05
2018-07-26T02:46:10.030Z,1016.01
2018-07-26T02:46:10.604Z,1016.04
2018-07-26T02:46:11.203Z,1016.06
2018-07-26T02:46:11.803Z,1016.06
2018-07-26T02:46:12.403Z,1016.05
2018-07-26T02:46:13.006Z,1016.05
2018-07-26T02:46:13.603Z,1016.07
2018-07-26T02:46:14.204Z,1016.04
2018-07-26T02:47:07.785Z,1016.05
2018-07-26T02:47:08.362Z,1016.01
2018-07-26T02:47:08.958Z,1016.04
2018-07-26T02:47:09.559Z,1016.05
2018-07-26T02:47:10.158Z,1016.07
2018-07-26T02:47:10.757Z,1016.08
2018-07-26T02:47:11.361Z,1016.08
2018-07-26T02:47:11.959Z,1016.05
2018-07-26T02:48:06.462Z,1016.05
2018-07-26T02:48:07.032Z,1016.05
2018-07-26T02:48:07.633Z,1016.09
2018-07-26T02:48:08.231Z,1016.06
2018-07-26T02:48:08.831Z,1016.09
2018-07-26T02:48:09.432Z,1016.07
2018-07-26T02:48:10.032Z,1016.04
2018-07-26T02:48:10.633Z,1016.08
2018-07-26T02:49:04.115Z,1016.09
2018-07-26T02:49:04.687Z,1016.09
2018-07-26T02:49:05.286Z,1016.04
2018-07-26T02:49:05.885Z,1016.07
2018-07-26T02:49:06.485Z,1016.05
2018-07-26T02:49:07.103Z,1016.05
2018-07-26T02:49:07.682Z,1016.04
2018-07-26T02:49:08.283Z,1016.04
2018-07-26T02:50:02.804Z,1016.06
2018-07-26T02:50:03.362Z,1016.05
2018-07-26T02:50:03.959Z,1016.05
2018-07-26T02:50:04.572Z,1016.03
2018-07-26T02:50:05.161Z,1016.06
2018-07-26T02:50:05.756Z,1016.06
2018-07-26T02:50:06.357Z,1016.07
2018-07-26T02:50:06.957Z,1016.08
2018-07-26T02:51:01.463Z,1016.09
2018-07-26T02:51:02.036Z,1016.07
2018-07-26T02:51:02.637Z,1016.08
2018-07-26T02:51:03.237Z,1016.08
2018-07-26T02:51:03.837Z,1016.06
2018-07-26T02:51:04.435Z,1016.09
2018-07-26T02:51:05.046Z,1016.05
2018-07-26T02:51:05.637Z,1016.10
2018-07-26T02:51:59.119Z,1016.08
2018-07-26T02:51:59.688Z,1016.07
2018-07-26T02:52:00.287Z,1016.09
2018-07-26T02:52:00.888Z,1016.12
2018-07-26T02:52:01.489Z,1016.12
2018-07-26T02:52:02.087Z,1016.09
2018-07-26T02:52:02.687Z,1016.11
2018-07-26T02:52:03.289Z,1016.10
2018-07-26T02:52:57.792Z,1016.11
2018-07-26T02:52:58.361Z,1016.08
2018-07-26T02:52:58.962Z,1016.07
2018-07-26T02:52:59.562Z,1016.08
2018-07-26T02:53:00.163Z,1016.08
2018-07-26T02:53:00.762Z,1016.06
2018-07-26T02:53:01.362Z,1016.09
2018-07-26T02:53:01.961Z,1016.10
2018-07-26T02:53:55.443Z,1016.10
2018-07-26T02:53:56.020Z,1016.09
2018-07-26T02:53:56.618Z,1016.10
2018-07-26T02:53:57.216Z,1016.10
2018-07-26T02:53:57.816Z,1016.07
2018-07-26T02:53:58.415Z,1016.11
2018-07-26T02:53:59.015Z,1016.09
2018-07-26T02:53:59.616Z,1016.10
2018-07-26T02:54:53.196Z,1016.10
2018-07-26T02:54:53.771Z,1016.10
2018-07-26T02:54:54.369Z,1016.09
2018-07-26T02:54:54.970Z,1016.10
2018-07-26T02:54:55.570Z,1016.11
2018-07-26T02:54:56.169Z,1016.12
2018-07-26T02:54:56.770Z,1016.12
2018-07-26T02:54:57.372Z,1016.10
2018-07-26T02:55:50.952Z,1016.11
2018-07-26T02:55:51.522Z,1016.08
2018-07-26T02:55:52.124Z,1016.09
2018-07-26T02:55:52.724Z,1016.09
2018-07-26T02:55:53.324Z,1016.13
2018-07-26T02:55:53.924Z,1016.10
2018-07-26T02:55:54.524Z,1016.12
2018-07-26T02:55:55.125Z,1016.13
2018-07-26T02:56:48.706Z,1016.09
2018-07-26T02:56:49.280Z,1016.09
2018-07-26T02:56:49.878Z,1016.12
2018-07-26T02:56:50.477Z,1016.12
2018-07-26T02:56:51.077Z,1016.14
2018-07-26T02:56:51.677Z,1016.14
2018-07-26T02:56:52.277Z,1016.08
2018-07-26T02:56:52.878Z,1016.07
2018-07-26T02:57:46.357Z,1016.12
2018-07-26T02:57:46.931Z,1016.11
2018-07-26T02:57:47.530Z,1016.14
2018-07-26T02:57:48.131Z,1016.10
2018-07-26T02:57:48.731Z,1016.12
2018-07-26T02:57:49.329Z,1016.14
2018-07-26T02:57:49.929Z,1016.12
2018-07-26T02:57:50.529Z,1016.13
2018-07-26T02:58:44.111Z,1016.11
2018-07-26T02:58:44.684Z,1016.09
2018-07-26T02:58:45.283Z,1016.11
2018-07-26T02:58:45.884Z,1016.11
2018-07-26T02:58:46.483Z,1016.14
2018-07-26T02:58:47.084Z,1016.09
2018-07-26T02:58:47.685Z,1016.08
2018-07-26T02:58:48.284Z,1016.10
2018-07-26T02:59:41.867Z,1016.13
2018-07-26T02:59:42.439Z,1016.11
2018-07-26T02:59:43.038Z,1016.11
2018-07-26T02:59:43.639Z,1016.05
2018-07-26T02:59:44.257Z,1016.07
2018-07-26T02:59:44.843Z,1016.10